createdAt,value
2023-04-29T00:12:15.788Z,10.11
2023-04-29T00:32:15.776Z,9.89
2023-04-29T00:52:15.791Z,9.90
2023-04-29T01:12:15.786Z,9.84
2023-04-29T01:32:15.788Z,9.90
2023-04-29T01:52:15.787Z,9.97
2023-04-29T02:12:15.787Z,10.14
2023-04-29T02:32:15.788Z,10.17
2023-04-29T02:52:15.683Z,10.23
2023-04-29T03:12:15.681Z,10.20
2023-04-29T03:32:15.672Z,10.14
2023-04-29T03:52:15.681Z,10.06
2023-04-29T04:12:15.659Z,10.01
2023-04-29T04:32:15.665Z,10.11
2023-04-29T04:52:15.662Z,10.11
2023-04-29T05:12:26.854Z,10.23
2023-04-29T05:32:15.664Z,10.58
2023-04-29T05:52:15.571Z,11.10
2023-04-29T06:12:15.582Z,11.40
2023-04-29T06:32:15.569Z,11.68
2023-04-29T06:52:15.550Z,11.82
2023-04-29T07:12:15.574Z,12.21
2023-04-29T07:32:15.550Z,12.54
2023-04-29T07:52:15.563Z,12.88
2023-04-29T08:12:15.461Z,13.42
2023-04-29T08:32:15.465Z,14.87
2023-04-29T08:52:15.465Z,16.68
2023-04-29T09:12:15.467Z,16.53
2023-04-29T09:32:15.366Z,14.55
2023-04-29T09:52:15.373Z,14.62
2023-04-29T10:12:15.385Z,16.14
2023-04-29T10:32:15.377Z,18.02
2023-04-29T10:52:15.284Z,18.48
2023-04-29T11:12:15.300Z,18.81
2023-04-29T11:32:15.292Z,18.98
2023-04-29T11:52:15.199Z,18.77
2023-04-29T12:12:15.209Z,18.55
2023-04-29T12:32:15.211Z,17.91
2023-04-29T12:52:15.126Z,18.69
2023-04-29T13:12:15.129Z,17.85
2023-04-29T13:32:15.139Z,17.15
2023-04-29T13:52:15.058Z,16.78
2023-04-29T14:12:15.061Z,16.58
2023-04-29T14:32:15.080Z,16.12
2023-04-29T14:52:15.031Z,16.12
2023-04-29T15:12:15.003Z,16.09
2023-04-29T15:32:15.187Z,15.82
2023-04-29T15:52:15.090Z,15.81
2023-04-29T16:12:14.985Z,15.22
2023-04-29T16:32:14.881Z,14.72
2023-04-29T16:52:14.972Z,14.18
2023-04-29T17:12:14.950Z,13.81
2023-04-29T17:32:14.836Z,13.59
2023-04-29T17:52:14.899Z,13.21
2023-04-29T18:12:14.911Z,12.87
2023-04-29T18:32:14.846Z,12.48
2023-04-29T18:52:14.813Z,12.08
2023-04-29T19:12:14.792Z,11.90
2023-04-29T19:32:14.854Z,11.74
2023-04-29T19:52:14.817Z,11.45
2023-04-29T20:12:14.710Z,11.51
2023-04-29T20:32:14.874Z,11.35
2023-04-29T20:52:14.764Z,11.31
2023-04-29T21:12:14.827Z,11.31
2023-04-29T21:32:14.791Z,11.14
2023-04-29T21:52:14.725Z,10.94
2023-04-29T22:12:14.728Z,10.75
2023-04-29T22:32:14.661Z,10.46
2023-04-29T22:52:14.694Z,10.30
2023-04-29T23:12:14.574Z,10.25
2023-04-29T23:32:14.645Z,10.23
2023-04-29T23:52:14.567Z,10.04
